createdAt,value
2022-08-01T00:00:10.043Z,18.10
2022-08-01T00:02:41.086Z,18.10
2022-08-01T00:05:09.529Z,18.10
2022-08-01T00:07:36.969Z,18.10
2022-08-01T00:10:12.498Z,18.10
2022-08-01T00:12:40.185Z,18.10
2022-08-01T00:15:09.198Z,18.10
2022-08-01T00:17:36.410Z,18.10
2022-08-01T00:20:06.104Z,18.10
2022-08-01T00:22:34.138Z,18.10
2022-08-01T00:25:01.433Z,18.10
2022-08-01T00:27:28.445Z,18.10
2022-08-01T00:30:13.278Z,18.10
2022-08-01T00:32:41.632Z,18.10
2022-08-01T00:35:08.685Z,18.10
2022-08-01T00:37:36.009Z,18.10
2022-08-01T00:40:02.910Z,18.10
2022-08-01T00:42:30.620Z,18.10
2022-08-01T00:44:58.328Z,18.10
2022-08-01T00:47:25.121Z,18.10
2022-08-01T00:49:52.064Z,18.10
2022-08-01T00:52:20.946Z,18.10
2022-08-01T00:54:48.035Z,18.10
2022-08-01T00:57:15.282Z,18.10
2022-08-01T00:59:42.658Z,18.10
2022-08-01T01:02:14.759Z,18.10
2022-08-01T01:04:43.234Z,18.10
2022-08-01T01:07:28.202Z,18.10
2022-08-01T01:10:05.727Z,18.10
2022-08-01T01:12:59.248Z,18.10
2022-08-01T01:15:41.267Z,18.10
2022-08-01T01:18:13.727Z,18.10
2022-08-01T01:20:44.660Z,18.10
2022-08-01T01:23:16.755Z,18.10
2022-08-01T01:26:09.704Z,18.10
2022-08-01T01:29:04.717Z,18.00
2022-08-01T01:31:36.714Z,18.00
2022-08-01T01:34:05.333Z,18.00
2022-08-01T01:36:33.445Z,18.00
2022-08-01T01:39:01.698Z,18.00
2022-08-01T01:41:29.701Z,17.90
2022-08-01T01:43:57.542Z,17.90
2022-08-01T01:46:28.054Z,17.90
2022-08-01T01:48:57.656Z,17.90
2022-08-01T01:51:26.646Z,17.90
2022-08-01T01:53:55.518Z,17.90
2022-08-01T01:56:23.938Z,17.90
2022-08-01T01:58:56.518Z,17.90
2022-08-01T02:01:58.734Z,17.80
2022-08-01T02:04:14.434Z,17.80
2022-08-01T02:06:43.191Z,17.80
2022-08-01T02:09:11.601Z,17.80
2022-08-01T02:12:09.492Z,17.80
2022-08-01T02:14:29.388Z,17.80
2022-08-01T02:17:00.032Z,17.80
2022-08-01T02:19:27.004Z,17.80
2022-08-01T02:21:58.958Z,17.80
2022-08-01T02:24:41.682Z,17.80
2022-08-01T02:27:15.474Z,17.70
2022-08-01T02:29:46.090Z,17.70
2022-08-01T02:32:21.411Z,17.70
2022-08-01T02:34:51.991Z,17.70
2022-08-01T02:37:22.064Z,17.70
2022-08-01T02:39:53.490Z,17.70
2022-08-01T02:42:21.335Z,17.70
2022-08-01T02:44:50.174Z,17.70
2022-08-01T02:47:20.610Z,17.70
2022-08-01T02:49:53.345Z,17.70
2022-08-01T02:52:22.338Z,17.60
2022-08-01T02:54:52.380Z,17.60
2022-08-01T02:57:21.455Z,17.60
2022-08-01T02:59:50.427Z,17.60
2022-08-01T03:02:18.834Z,17.60
2022-08-01T03:04:46.281Z,17.60
2022-08-01T03:07:14.339Z,17.60
2022-08-01T03:09:45.538Z,17.60
2022-08-01T03:12:18.244Z,17.60
2022-08-01T03:14:47.867Z,17.60
2022-08-01T03:17:19.492Z,17.60
2022-08-01T03:19:47.766Z,17.60
2022-08-01T03:22:16.962Z,17.60
2022-08-01T03:24:48.485Z,17.60
2022-08-01T03:27:20.267Z,17.60
2022-08-01T03:29:48.611Z,17.60
2022-08-01T03:32:17.587Z,17.60
2022-08-01T03:34:44.507Z,17.60
2022-08-01T03:37:18.899Z,17.60
2022-08-01T03:39:50.287Z,17.60
2022-08-01T03:42:24.382Z,17.60
2022-08-01T03:44:57.989Z,17.50
2022-08-01T03:47:30.569Z,17.50
2022-08-01T03:49:59.371Z,17.50
2022-08-01T03:52:28.824Z,17.50
2022-08-01T03:54:57.204Z,17.50
2022-08-01T03:57:36.559Z,17.50
2022-08-01T04:00:10.281Z,17.50
2022-08-01T04:02:38.574Z,17.50
2022-08-01T04:05:06.432Z,17.50
2022-08-01T04:07:37.058Z,17.50
2022-08-01T04:10:05.428Z,17.50
2022-08-01T04:12:33.396Z,17.50
2022-08-01T04:15:00.461Z,17.50
2022-08-01T04:17:27.539Z,17.50
2022-08-01T04:19:54.347Z,17.50
2022-08-01T04:22:21.525Z,17.50
2022-08-01T04:24:56.453Z,17.50
2022-08-01T09:03:26.644Z,17.50
2022-08-01T09:05:54.000Z,19.30
2022-08-01T09:34:05.623Z,19.40
2022-08-01T10:05:08.785Z,20.70
2022-08-01T10:07:55.610Z,21.60
2022-08-01T10:10:28.912Z,21.60
2022-08-01T11:04:16.916Z,24.30
2022-08-01T12:05:08.251Z,25.70
2022-08-01T12:07:36.653Z,25.80
2022-08-01T12:10:07.954Z,25.80
2022-08-01T12:12:36.595Z,25.80
2022-08-01T12:22:59.733Z,25.90
2022-08-01T12:25:26.595Z,25.70
2022-08-01T12:27:56.573Z,25.70
2022-08-01T12:30:25.559Z,25.80
2022-08-01T12:32:55.905Z,25.70
2022-08-01T12:35:27.788Z,25.90
2022-08-01T12:37:58.595Z,25.90
2022-08-01T12:40:27.615Z,25.70
2022-08-01T12:43:27.249Z,25.70
2022-08-01T12:46:01.299Z,25.60
2022-08-01T12:48:29.017Z,25.80
2022-08-01T12:50:58.660Z,25.70
2022-08-01T12:53:27.010Z,25.80
2022-08-01T12:56:06.541Z,25.70
2022-08-01T12:58:34.370Z,25.70
2022-08-01T13:01:10.350Z,25.50
2022-08-01T13:03:38.381Z,25.50
2022-08-01T13:06:16.635Z,25.50
2022-08-01T13:08:45.380Z,25.50
2022-08-01T13:11:18.325Z,25.30
2022-08-01T13:13:51.336Z,25.40
2022-08-01T13:16:30.763Z,25.50
2022-08-01T13:19:06.521Z,25.40
2022-08-01T13:21:49.075Z,25.40
2022-08-01T13:24:28.239Z,25.50
2022-08-01T13:27:03.554Z,25.50
2022-08-01T13:29:39.673Z,25.30
2022-08-01T13:32:29.941Z,25.30
2022-08-01T13:35:09.657Z,25.30
2022-08-01T13:37:38.509Z,25.30
2022-08-01T13:40:10.163Z,25.20
2022-08-01T13:42:37.672Z,25.30
2022-08-01T13:45:14.562Z,25.40
2022-08-01T13:48:03.375Z,25.40
2022-08-01T13:50:29.806Z,25.30
2022-08-01T13:52:56.607Z,25.30
2022-08-01T13:55:23.455Z,25.30
2022-08-01T13:57:51.120Z,25.40
2022-08-01T14:00:18.176Z,25.30
2022-08-01T14:02:45.133Z,25.40
2022-08-01T14:05:12.369Z,25.60
2022-08-01T14:07:39.169Z,25.60
2022-08-01T14:10:19.421Z,25.30
2022-08-01T14:12:47.830Z,25.20
2022-08-01T14:15:14.922Z,25.10
2022-08-01T14:18:01.876Z,24.90
2022-08-01T14:20:29.365Z,24.80
2022-08-01T14:22:56.437Z,24.80
2022-08-01T14:25:58.166Z,24.70
2022-08-01T14:28:11.321Z,24.80
2022-08-01T14:30:38.359Z,24.70
2022-08-01T15:10:36.066Z,24.60
2022-08-01T15:13:02.927Z,22.90
2022-08-01T15:15:30.131Z,22.80
2022-08-01T15:17:57.224Z,22.70
2022-08-01T18:08:50.826Z,18.20
2022-08-01T18:13:51.636Z,18.10
2022-08-01T18:16:19.151Z,18.20
2022-08-01T18:21:13.540Z,18.00
2022-08-01T18:23:40.531Z,17.80
2022-08-01T18:33:44.249Z,17.50
2022-08-01T18:36:18.364Z,17.50
2022-08-01T18:38:59.305Z,17.50
2022-08-01T18:41:26.699Z,17.40
2022-08-01T18:44:03.841Z,17.30
2022-08-01T18:46:33.123Z,17.30
2022-08-01T18:49:00.143Z,17.20
2022-08-01T18:51:28.617Z,17.10
2022-08-01T18:53:57.668Z,17.00
2022-08-01T20:59:54.451Z,14.40
2022-08-01T21:37:30.388Z,13.60
2022-08-01T21:39:58.651Z,13.70
2022-08-01T21:42:28.115Z,13.50
2022-08-01T21:47:24.447Z,13.60
2022-08-01T21:49:51.199Z,13.40
2022-08-01T21:55:10.763Z,13.30
2022-08-01T21:57:44.027Z,13.30
2022-08-01T22:00:20.979Z,13.20
